Time;durP1;ratioP1;P1;durP2;ratioP2;P2;SDS_P1;SDS_P2;PMS_P1;PMS_P2;Temp;Humidity;BMP_temperature;BMP_pressure;BME280_temperature;BME280_humidity;BME280_pressure;Samples;Min_cycle;Max_cycle;Signal;HPM_P1;HPM_P2
2021/07/03 00:00:35;;;;;;;12.18;7.50;;;14.00;77.70;;;;;;5012959;28;20033;-75
2021/07/03 00:03:01;;;;;;;11.98;7.80;;;14.10;77.50;;;;;;5014402;28;20046;-75
2021/07/03 00:05:27;;;;;;;10.98;7.28;;;14.00;77.40;;;;;;5020396;28;20030;-75
2021/07/03 00:07:53;;;;;;;8.63;7.03;;;14.10;77.50;;;;;;5020138;28;20021;-76
2021/07/03 00:10:19;;;;;;;10.27;7.47;;;13.90;77.70;;;;;;5015139;28;20025;-81
2021/07/03 00:12:45;;;;;;;9.75;7.03;;;13.90;77.90;;;;;;5023124;28;20109;-75
2021/07/03 00:15:21;;;;;;;9.70;7.05;;;14.00;77.80;;;;;;5026839;28;20030;-74
2021/07/03 00:17:47;;;;;;;9.82;7.32;;;14.00;77.80;;;;;;5024253;28;20474;-82
2021/07/03 00:20:13;;;;;;;10.73;7.65;;;14.00;77.60;;;;;;5018656;28;20030;-79
2021/07/03 00:22:38;;;;;;;8.43;6.78;;;13.90;77.70;;;;;;5034125;28;20049;-81
2021/07/03 00:25:06;;;;;;;10.77;7.45;;;14.00;77.80;;;;;;5017659;28;20018;-77
2021/07/03 00:27:31;;;;;;;10.77;6.93;;;13.90;77.90;;;;;;5013711;28;20030;-77
2021/07/03 00:29:57;;;;;;;9.55;7.07;;;13.90;78.00;;;;;;5014933;28;20451;-77
2021/07/03 00:32:23;;;;;;;9.77;7.03;;;13.90;78.00;;;;;;5013662;28;20038;-76
2021/07/03 00:34:49;;;;;;;10.48;6.63;;;13.80;78.00;;;;;;5020823;28;20029;-76
2021/07/03 00:37:15;;;;;;;9.82;7.40;;;13.90;78.10;;;;;;5031761;28;20033;-76
2021/07/03 00:39:41;;;;;;;11.23;7.88;;;13.90;78.10;;;;;;5038314;28;20026;-75
2021/07/03 00:42:07;;;;;;;8.82;7.03;;;13.80;78.20;;;;;;5032420;28;20092;-75
2021/07/03 00:44:36;;;;;;;10.55;6.95;;;13.80;78.30;;;;;;5020802;28;20025;-73
2021/07/03 00:47:06;;;;;;;10.27;7.32;;;13.80;78.60;;;;;;5022384;28;20030;-73
2021/07/03 00:49:32;;;;;;;9.15;6.82;;;13.70;78.60;;;;;;5029784;28;20018;-74
2021/07/03 00:51:58;;;;;;;10.23;6.68;;;13.70;78.70;;;;;;5023412;28;20540;-75
2021/07/03 00:54:24;;;;;;;10.02;7.18;;;13.70;78.50;;;;;;5018106;28;20034;-73
2021/07/03 00:57:01;;;;;;;11.90;7.78;;;13.70;78.60;;;;;;5018837;28;20034;-73
2021/07/03 00:59:34;;;;;;;8.93;6.82;;;13.80;78.70;;;;;;5017466;28;20025;-73
2021/07/03 01:02:01;;;;;;;9.07;6.85;;;13.80;78.80;;;;;;5016820;28;20022;-73
2021/07/03 01:04:27;;;;;;;10.63;7.55;;;13.70;78.90;;;;;;5016103;28;20060;-73
2021/07/03 01:06:53;;;;;;;10.07;7.60;;;13.70;78.90;;;;;;5016423;28;20022;-73
2021/07/03 01:09:18;;;;;;;10.88;7.30;;;13.70;79.20;;;;;;5017166;28;20036;-73
2021/07/03 01:11:44;;;;;;;11.95;7.05;;;13.60;79.40;;;;;;5016084;28;20034;-73
2021/07/03 01:14:10;;;;;;;9.25;7.00;;;13.60;79.50;;;;;;5015672;28;20029;-73
2021/07/03 01:16:35;;;;;;;9.73;6.72;;;13.60;79.50;;;;;;4996770;28;20130;-74
2021/07/03 01:19:01;;;;;;;10.65;7.07;;;13.50;79.80;;;;;;5015667;28;20033;-73
2021/07/03 01:21:28;;;;;;;11.38;7.25;;;13.50;80.10;;;;;;5015640;28;20029;-74
2021/07/03 01:23:55;;;;;;;9.95;7.00;;;13.50;80.30;;;;;;5015597;28;20410;-74
2021/07/03 01:26:20;;;;;;;9.57;6.90;;;13.50;80.40;;;;;;5015526;28;20037;-74
2021/07/03 01:28:46;;;;;;;9.43;7.28;;;13.40;80.30;;;;;;5015463;28;20034;-73
2021/07/03 01:31:12;;;;;;;9.40;6.70;;;13.50;80.30;;;;;;5015559;28;20028;-74
2021/07/03 01:33:38;;;;;;;11.13;7.38;;;13.50;80.30;;;;;;5015386;28;20026;-74
2021/07/03 01:36:04;;;;;;;13.77;7.18;;;13.50;80.20;;;;;;5015476;28;20039;-74
2021/07/03 01:38:30;;;;;;;10.48;8.05;;;13.40;80.20;;;;;;5015268;28;20545;-73
2021/07/03 01:40:55;;;;;;;10.88;6.78;;;13.50;80.50;;;;;;5015367;28;20030;-74
2021/07/03 01:43:26;;;;;;;12.30;8.30;;;13.40;80.60;;;;;;5015046;28;20030;-73
2021/07/03 01:45:53;;;;;;;10.68;7.65;;;13.50;80.70;;;;;;5015074;28;20021;-73
2021/07/03 01:48:26;;;;;;;9.35;7.07;;;13.40;80.70;;;;;;5013622;28;20363;-75
2021/07/03 01:50:52;;;;;;;14.05;8.05;;;13.40;80.70;;;;;;5013944;28;20038;-73
2021/07/03 01:53:17;;;;;;;11.63;7.65;;;13.40;80.90;;;;;;5014992;28;20030;-73
2021/07/03 01:55:43;;;;;;;9.00;7.15;;;13.40;81.10;;;;;;5014816;28;20052;-73
2021/07/03 01:58:09;;;;;;;11.20;7.40;;;13.30;81.20;;;;;;5015029;28;20018;-73
2021/07/03 02:00:34;;;;;;;11.60;7.22;;;13.30;81.10;;;;;;5014708;28;20426;-73
2021/07/03 02:03:00;;;;;;;11.00;7.72;;;13.20;81.20;;;;;;5013377;28;20057;-73
2021/07/03 02:05:25;;;;;;;13.35;7.57;;;13.20;81.60;;;;;;5014735;28;20030;-74
2021/07/03 02:07:51;;;;;;;11.57;7.95;;;13.20;81.60;;;;;;5014607;28;20105;-73
2021/07/03 02:10:16;;;;;;;10.30;8.07;;;13.20;81.70;;;;;;5014530;28;20022;-74
2021/07/03 02:12:42;;;;;;;11.05;7.53;;;13.10;81.90;;;;;;5014605;28;20042;-75
2021/07/03 02:15:08;;;;;;;12.88;7.50;;;13.10;82.10;;;;;;5014508;28;20018;-78
2021/07/03 02:17:34;;;;;;;12.13;8.18;;;13.10;82.00;;;;;;5014355;28;20066;-75
2021/07/03 02:20:00;;;;;;;13.10;7.15;;;13.10;82.00;;;;;;5014385;28;20056;-76
2021/07/03 02:22:25;;;;;;;11.80;8.45;;;13.10;82.10;;;;;;5014318;28;20018;-75
2021/07/03 02:24:51;;;;;;;13.10;8.23;;;13.00;82.20;;;;;;5014253;28;20034;-75
2021/07/03 02:27:16;;;;;;;10.93;7.72;;;13.00;82.20;;;;;;5014242;28;20048;-76
2021/07/03 02:29:42;;;;;;;11.15;7.88;;;13.10;82.30;;;;;;5014196;28;20374;-75
2021/07/03 02:32:08;;;;;;;9.40;7.72;;;13.10;82.20;;;;;;4996643;28;20121;-76
2021/07/03 02:34:34;;;;;;;11.60;7.80;;;13.10;82.20;;;;;;5013956;28;20025;-76
2021/07/03 02:37:00;;;;;;;15.73;8.38;;;13.10;82.30;;;;;;5014072;28;20034;-76
2021/07/03 02:39:25;;;;;;;11.50;7.68;;;13.00;82.30;;;;;;5013929;28;20044;-73
2021/07/03 02:41:51;;;;;;;12.52;7.68;;;13.00;82.50;;;;;;4996492;28;20117;-76
2021/07/03 02:44:17;;;;;;;10.48;7.70;;;13.00;82.40;;;;;;5013908;28;20025;-76
2021/07/03 02:46:42;;;;;;;10.90;7.53;;;13.00;82.30;;;;;;5013845;28;20044;-76
2021/07/03 02:49:08;;;;;;;14.05;7.80;;;13.00;82.20;;;;;;5013978;28;20076;-76
2021/07/03 02:51:34;;;;;;;10.40;7.55;;;13.00;82.20;;;;;;5013826;28;20041;-75
2021/07/03 02:53:59;;;;;;;15.00;7.35;;;13.00;82.20;;;;;;5013819;28;20046;-75
2021/07/03 02:56:25;;;;;;;11.25;7.35;;;13.00;82.10;;;;;;5013666;28;20026;-75
2021/07/03 02:58:50;;;;;;;11.20;7.53;;;13.00;82.00;;;;;;5013763;28;20025;-75
2021/07/03 03:01:16;;;;;;;10.35;7.60;;;13.10;81.80;;;;;;5013451;28;20076;-75
2021/07/03 03:03:43;;;;;;;13.13;7.35;;;13.10;81.90;;;;;;5013479;28;20375;-75
2021/07/03 03:06:11;;;;;;;14.85;7.57;;;13.10;81.80;;;;;;5013725;28;20105;-75
2021/07/03 03:08:36;;;;;;;11.70;7.47;;;13.00;81.90;;;;;;5013389;28;20458;-76
2021/07/03 03:11:02;;;;;;;10.93;7.80;;;12.90;82.20;;;;;;5013552;28;20045;-75
2021/07/03 03:13:28;;;;;;;12.60;7.85;;;13.00;82.30;;;;;;5013460;28;20025;-75
2021/07/03 03:15:53;;;;;;;11.52;7.88;;;12.90;82.30;;;;;;5013544;28;20057;-75
2021/07/03 03:18:19;;;;;;;11.23;8.20;;;12.90;83.20;;;;;;5013411;28;20022;-76
2021/07/03 03:20:45;;;;;;;13.35;8.30;;;12.90;82.60;;;;;;5013438;28;20024;-74
2021/07/03 03:23:10;;;;;;;12.23;7.75;;;12.80;82.50;;;;;;4995846;28;20033;-74
2021/07/03 03:25:36;;;;;;;10.48;7.72;;;12.80;82.70;;;;;;5013276;28;20497;-74
2021/07/03 03:28:02;;;;;;;11.75;7.80;;;12.80;82.60;;;;;;5013299;28;20474;-74
2021/07/03 03:30:28;;;;;;;10.43;7.50;;;12.80;82.80;;;;;;5013244;28;20564;-75
2021/07/03 03:32:53;;;;;;;12.85;7.63;;;12.80;82.80;;;;;;5013292;28;20033;-75
2021/07/03 03:35:20;;;;;;;11.30;8.00;;;12.80;82.50;;;;;;5013204;28;20033;-75
2021/07/03 03:37:45;;;;;;;11.73;8.30;;;12.80;82.50;;;;;;5013244;28;20448;-74
2021/07/03 03:40:12;;;;;;;11.73;8.52;;;12.80;82.60;;;;;;5013141;28;20093;-74
2021/07/03 03:42:37;;;;;;;13.10;8.30;;;12.80;82.50;;;;;;5013193;28;20044;-74
2021/07/03 03:45:05;;;;;;;12.75;7.93;;;12.80;82.50;;;;;;5013151;28;20034;-74
2021/07/03 03:47:30;;;;;;;12.13;8.00;;;12.70;82.80;;;;;;5012960;28;20049;-74
2021/07/03 03:49:56;;;;;;;9.40;7.07;;;12.70;82.90;;;;;;5013053;28;20390;-74
2021/07/03 03:52:22;;;;;;;11.98;7.90;;;12.70;82.80;;;;;;5011673;28;20034;-74
2021/07/03 03:54:47;;;;;;;11.13;8.05;;;12.80;82.50;;;;;;5013151;28;20033;-74
2021/07/03 03:57:22;;;;;;;11.48;8.27;;;12.80;82.30;;;;;;5011815;28;20026;-74
2021/07/03 03:59:49;;;;;;;11.57;8.13;;;12.80;82.10;;;;;;5013147;28;20034;-75
2021/07/03 04:02:15;;;;;;;14.07;8.82;;;12.80;82.20;;;;;;5012773;28;20034;-74
2021/07/03 04:04:41;;;;;;;13.27;7.90;;;12.80;82.20;;;;;;5012986;28;20046;-78
2021/07/03 04:07:07;;;;;;;11.10;8.77;;;12.80;82.10;;;;;;5013054;28;20048;-77
2021/07/03 04:09:32;;;;;;;9.40;7.10;;;12.90;82.10;;;;;;5013012;28;20026;-78
2021/07/03 04:11:58;;;;;;;12.98;7.38;;;12.90;81.80;;;;;;5012886;28;20506;-75
2021/07/03 04:14:23;;;;;;;10.55;7.78;;;13.00;81.70;;;;;;5016189;28;20390;-75
2021/07/03 04:16:49;;;;;;;11.60;7.22;;;13.10;81.50;;;;;;5016942;28;20029;-74
2021/07/03 04:19:15;;;;;;;11.88;7.45;;;13.10;81.20;;;;;;5016454;28;20018;-76
2021/07/03 04:21:40;;;;;;;11.75;7.35;;;13.20;80.90;;;;;;5016596;28;20030;-74
2021/07/03 04:24:06;;;;;;;11.20;8.05;;;13.20;80.80;;;;;;5016658;28;20088;-75
2021/07/03 04:26:31;;;;;;;10.20;7.43;;;13.10;80.90;;;;;;5016560;28;20125;-75
2021/07/03 04:28:57;;;;;;;11.55;7.60;;;13.10;80.90;;;;;;5016638;28;20037;-78
2021/07/03 04:31:23;;;;;;;12.23;7.65;;;13.00;80.90;;;;;;5017581;28;20132;-79
2021/07/03 04:33:49;;;;;;;11.75;7.65;;;13.00;81.40;;;;;;5017078;28;20026;-74
2021/07/03 04:36:14;;;;;;;11.55;7.65;;;13.00;81.10;;;;;;5016967;28;20429;-73
2021/07/03 04:38:40;;;;;;;11.35;7.35;;;13.10;81.00;;;;;;5018387;28;20029;-73
2021/07/03 04:41:05;;;;;;;12.45;7.88;;;13.20;80.30;;;;;;5036821;28;20014;-73
2021/07/03 04:43:33;;;;;;;11.60;7.57;;;13.30;79.80;;;;;;5034109;28;20478;-73
2021/07/03 04:45:58;;;;;;;11.60;7.32;;;13.40;79.50;;;;;;5016315;28;20022;-74
2021/07/03 04:48:24;;;;;;;12.23;7.20;;;13.50;79.20;;;;;;5016177;28;20096;-73
2021/07/03 04:50:49;;;;;;;10.98;7.47;;;13.60;79.00;;;;;;4998496;28;20033;-73
2021/07/03 04:53:15;;;;;;;12.20;6.90;;;13.70;78.60;;;;;;5016078;28;20034;-73
2021/07/03 04:55:41;;;;;;;9.05;7.10;;;13.80;78.30;;;;;;5016112;28;20171;-73
2021/07/03 04:58:06;;;;;;;11.52;7.38;;;13.80;78.10;;;;;;5016017;28;20071;-74
2021/07/03 05:00:32;;;;;;;13.05;6.85;;;13.90;78.00;;;;;;5015911;28;20041;-74
2021/07/03 05:02:58;;;;;;;11.95;7.80;;;14.00;77.70;;;;;;5015727;28;20053;-74
2021/07/03 05:05:24;;;;;;;9.65;6.55;;;14.10;77.40;;;;;;5015767;28;20022;-74
2021/07/03 05:07:49;;;;;;;10.93;7.50;;;14.20;76.90;;;;;;5015728;28;20034;-73
2021/07/03 05:10:15;;;;;;;8.73;6.78;;;14.30;76.50;;;;;;5015884;28;20041;-75
2021/07/03 05:12:41;;;;;;;8.32;7.10;;;14.50;76.20;;;;;;5015615;28;20030;-74
2021/07/03 05:15:06;;;;;;;9.40;6.35;;;14.60;75.60;;;;;;5014415;28;20034;-75
2021/07/03 05:17:32;;;;;;;13.68;7.15;;;14.70;75.50;;;;;;5015664;28;20085;-74
2021/07/03 05:19:58;;;;;;;8.90;6.40;;;14.80;75.10;;;;;;5015609;28;20025;-74
2021/07/03 05:22:23;;;;;;;9.82;6.65;;;15.00;74.70;;;;;;5015514;28;20026;-73
2021/07/03 05:24:49;;;;;;;8.63;7.07;;;15.20;73.80;;;;;;5015208;28;20471;-73
2021/07/03 05:27:14;;;;;;;7.85;5.80;;;15.30;73.30;;;;;;5014241;28;20470;-74
2021/07/03 05:29:40;;;;;;;11.32;6.82;;;15.40;73.10;;;;;;5015490;28;20022;-74
2021/07/03 05:32:06;;;;;;;8.40;6.93;;;15.60;72.40;;;;;;5015239;28;20087;-74
2021/07/03 05:34:31;;;;;;;10.55;6.75;;;15.70;71.80;;;;;;4997648;28;20045;-74
2021/07/03 05:36:58;;;;;;;10.32;6.55;;;15.90;71.60;;;;;;5015186;28;20026;-74
2021/07/03 05:39:23;;;;;;;9.07;6.00;;;16.00;71.00;;;;;;5015149;28;20025;-74
2021/07/03 05:41:49;;;;;;;8.27;6.32;;;16.20;70.90;;;;;;5027620;28;20029;-74
2021/07/03 05:44:15;;;;;;;9.75;6.25;;;16.30;70.50;;;;;;5030825;28;20026;-73
2021/07/03 05:46:41;;;;;;;6.70;5.43;;;16.50;70.10;;;;;;5035287;28;20394;-77
2021/07/03 05:49:07;;;;;;;8.15;6.20;;;16.60;69.80;;;;;;5040521;28;20034;-76
2021/07/03 05:51:32;;;;;;;6.47;5.30;;;16.70;69.50;;;;;;5052830;28;20041;-74
2021/07/03 05:53:58;;;;;;;7.38;5.85;;;16.90;69.20;;;;;;5045405;28;20017;-76
2021/07/03 05:56:26;;;;;;;6.55;5.18;;;17.00;69.00;;;;;;5034900;28;20053;-75
2021/07/03 05:58:51;;;;;;;8.75;6.13;;;17.10;68.80;;;;;;5035049;28;20021;-75
2021/07/03 06:01:17;;;;;;;6.60;5.60;;;17.20;68.40;;;;;;5034344;28;20429;-75
2021/07/03 06:03:43;;;;;;;9.35;6.00;;;17.40;68.20;;;;;;5034206;28;20561;-73
2021/07/03 06:06:08;;;;;;;8.27;6.25;;;17.50;68.10;;;;;;5034374;28;20029;-73
2021/07/03 06:08:34;;;;;;;9.57;7.10;;;17.60;68.20;;;;;;5034304;28;20026;-75
2021/07/03 06:11:00;;;;;;;8.95;6.40;;;17.70;68.30;;;;;;5034184;28;20421;-73
2021/07/03 06:13:26;;;;;;;7.97;6.50;;;17.80;68.00;;;;;;5034139;28;20108;-73
2021/07/03 06:15:51;;;;;;;9.48;7.55;;;17.80;67.80;;;;;;5033985;28;20107;-73
2021/07/03 06:18:17;;;;;;;10.68;6.32;;;17.80;67.70;;;;;;5034210;28;20029;-74
2021/07/03 06:20:44;;;;;;;12.18;7.03;;;17.90;67.80;;;;;;5032635;28;20029;-74
2021/07/03 06:23:10;;;;;;;9.25;6.47;;;17.90;67.40;;;;;;5034001;28;20088;-74
2021/07/03 06:25:36;;;;;;;9.20;6.30;;;18.00;67.30;;;;;;5033921;28;20038;-75
2021/07/03 06:28:01;;;;;;;8.77;6.38;;;18.00;67.20;;;;;;5033643;28;20087;-74
2021/07/03 06:30:27;;;;;;;8.57;6.43;;;18.10;67.10;;;;;;5033728;28;20386;-74
2021/07/03 06:32:53;;;;;;;7.45;5.50;;;18.20;66.50;;;;;;5033728;28;20041;-74
2021/07/03 06:35:18;;;;;;;7.25;5.45;;;18.40;66.00;;;;;;5033260;28;20040;-74
2021/07/03 06:37:44;;;;;;;8.10;5.53;;;18.50;65.50;;;;;;5016032;28;20029;-74
2021/07/03 06:40:11;;;;;;;7.50;5.47;;;18.60;65.20;;;;;;5033665;28;20018;-74
2021/07/03 06:42:36;;;;;;;8.35;5.70;;;18.80;64.90;;;;;;5033603;28;20044;-74
2021/07/03 06:45:02;;;;;;;6.88;5.30;;;18.90;64.50;;;;;;5033691;28;20033;-75
2021/07/03 06:47:28;;;;;;;8.20;5.90;;;19.00;64.20;;;;;;5033399;28;20018;-75
2021/07/03 06:49:54;;;;;;;9.88;6.60;;;19.20;63.90;;;;;;5033164;28;20028;-74
2021/07/03 06:52:19;;;;;;;7.85;5.38;;;19.40;63.40;;;;;;5033151;28;20049;-79
2021/07/03 06:54:45;;;;;;;7.40;5.55;;;19.50;62.60;;;;;;5033057;28;20018;-75
2021/07/03 06:57:12;;;;;;;5.88;5.15;;;19.70;62.00;;;;;;5033306;28;20478;-74
2021/07/03 06:59:38;;;;;;;8.63;5.20;;;19.80;59.80;;;;;;5033404;28;20504;-74
2021/07/03 07:02:04;;;;;;;7.57;5.80;;;19.90;59.20;;;;;;5033296;28;20033;-74
2021/07/03 07:04:29;;;;;;;10.88;6.72;;;20.00;59.00;;;;;;5032938;28;20482;-75
2021/07/03 07:06:57;;;;;;;8.20;6.60;;;20.20;59.00;;;;;;5033238;28;20025;-73
2021/07/03 07:09:24;;;;;;;5.72;5.10;;;20.30;58.70;;;;;;5032203;28;20034;-76
2021/07/03 07:11:50;;;;;;;4.95;4.28;;;20.30;58.20;;;;;;5033789;28;20034;-75
2021/07/03 07:14:16;;;;;;;17.25;5.82;;;20.50;57.70;;;;;;5037581;28;20021;-78
2021/07/03 07:16:41;;;;;;;8.38;5.20;;;20.70;57.90;;;;;;5039285;28;20037;-75
2021/07/03 07:19:08;;;;;;;7.20;4.72;;;20.90;57.50;;;;;;5037878;28;20026;-75
2021/07/03 07:21:34;;;;;;;5.50;4.20;;;21.10;55.80;;;;;;5035971;28;20100;-77
2021/07/03 07:24:01;;;;;;;5.55;4.00;;;21.10;51.80;;;;;;5033279;28;20096;-73
2021/07/03 07:26:27;;;;;;;6.25;4.03;;;21.10;50.10;;;;;;5032807;28;20026;-75
2021/07/03 07:28:53;;;;;;;6.80;4.85;;;21.10;52.20;;;;;;5033018;28;20378;-74
2021/07/03 07:31:19;;;;;;;6.60;4.60;;;21.10;52.80;;;;;;5015090;28;20434;-73
2021/07/03 07:33:45;;;;;;;5.55;4.45;;;21.20;52.80;;;;;;5032944;28;20021;-73
2021/07/03 07:36:11;;;;;;;5.57;4.07;;;21.40;53.30;;;;;;5032542;28;20433;-78
2021/07/03 07:38:37;;;;;;;9.25;5.25;;;21.50;51.60;;;;;;5033582;28;20021;-74
2021/07/03 07:41:03;;;;;;;16.25;7.35;;;21.60;52.30;;;;;;5032677;28;20029;-76
2021/07/03 07:43:29;;;;;;;10.68;5.82;;;21.70;51.10;;;;;;5032787;28;20033;-72
2021/07/03 07:45:58;;;;;;;19.52;6.55;;;21.70;49.70;;;;;;5032723;28;20026;-78
2021/07/03 07:48:23;;;;;;;18.80;6.55;;;21.80;50.10;;;;;;5034336;28;20183;-73
2021/07/03 07:50:50;;;;;;;15.02;6.07;;;21.90;51.00;;;;;;5036114;28;20160;-74
2021/07/03 07:53:15;;;;;;;9.13;5.55;;;22.10;50.30;;;;;;5036454;28;20053;-73
2021/07/03 07:55:41;;;;;;;9.25;5.50;;;22.10;49.40;;;;;;5036575;28;20466;-73
2021/07/03 07:58:07;;;;;;;6.60;5.07;;;22.20;48.90;;;;;;5036485;28;20032;-73
2021/07/03 08:00:32;;;;;;;8.05;5.15;;;22.20;48.40;;;;;;5036300;28;20155;-75
2021/07/03 08:02:58;;;;;;;7.97;4.57;;;22.40;48.10;;;;;;5011497;28;20054;-77
2021/07/03 08:05:25;;;;;;;7.93;4.38;;;22.40;46.90;;;;;;5016219;28;20032;-73
2021/07/03 08:07:51;;;;;;;4.80;4.28;;;22.40;47.50;;;;;;5016697;28;20226;-73
2021/07/03 08:10:17;;;;;;;5.97;4.28;;;22.50;45.50;;;;;;5016505;28;20383;-73
2021/07/03 08:12:43;;;;;;;6.07;4.82;;;22.30;45.50;;;;;;5016587;28;20034;-73
2021/07/03 08:15:09;;;;;;;4.35;3.95;;;22.20;45.40;;;;;;5016433;28;20018;-73
2021/07/03 08:17:35;;;;;;;4.75;4.20;;;22.30;47.80;;;;;;5016463;28;20053;-73
2021/07/03 08:20:00;;;;;;;4.68;4.10;;;22.30;46.80;;;;;;5016554;28;20029;-74
2021/07/03 08:22:26;;;;;;;5.28;4.32;;;22.40;47.40;;;;;;5016283;28;20497;-73
2021/07/03 08:24:52;;;;;;;4.43;4.03;;;22.50;46.90;;;;;;5016061;28;20026;-74
2021/07/03 08:27:18;;;;;;;4.45;3.95;;;22.60;47.50;;;;;;5016351;28;20030;-73
2021/07/03 08:29:43;;;;;;;5.18;3.72;;;22.70;47.00;;;;;;5016039;28;20049;-74
2021/07/03 08:32:09;;;;;;;5.05;3.95;;;22.70;44.70;;;;;;5016137;28;20077;-74
2021/07/03 08:34:34;;;;;;;5.40;3.65;;;22.60;44.10;;;;;;5015721;28;20080;-74
2021/07/03 08:37:00;;;;;;;4.43;3.80;;;22.60;44.00;;;;;;5015934;28;20477;-74
2021/07/03 08:39:25;;;;;;;4.80;4.22;;;22.70;44.60;;;;;;5015703;28;20053;-74
2021/07/03 08:41:51;;;;;;;6.25;4.10;;;22.70;43.90;;;;;;5015962;28;20026;-75
2021/07/03 08:44:17;;;;;;;4.40;4.00;;;22.60;42.60;;;;;;4998180;28;20386;-78
2021/07/03 08:46:46;;;;;;;4.55;3.78;;;22.60;42.90;;;;;;5015569;28;20356;-74
2021/07/03 08:49:16;;;;;;;5.00;4.40;;;22.60;43.50;;;;;;5015805;28;20022;-78
2021/07/03 08:51:45;;;;;;;4.65;4.25;;;22.50;44.60;;;;;;5015618;28;20041;-78
2021/07/03 08:54:11;;;;;;;4.28;3.88;;;22.50;45.80;;;;;;5015597;28;20029;-77
2021/07/03 08:56:36;;;;;;;4.80;4.22;;;22.60;45.60;;;;;;5015526;28;20030;-78
2021/07/03 08:59:13;;;;;;;4.90;3.97;;;22.70;45.30;;;;;;5014971;28;20430;-73
2021/07/03 09:01:51;;;;;;;7.43;4.60;;;22.70;46.60;;;;;;5015482;28;20492;-74
2021/07/03 09:04:17;;;;;;;11.10;4.20;;;22.90;45.10;;;;;;5033032;28;20048;-77
2021/07/03 09:06:42;;;;;;;4.70;4.22;;;22.90;44.00;;;;;;5035149;28;20025;-74
2021/07/03 09:09:08;;;;;;;5.80;4.60;;;23.10;44.30;;;;;;5035075;28;20045;-74
2021/07/03 09:11:34;;;;;;;6.45;4.70;;;23.20;44.20;;;;;;5034929;28;20025;-74
2021/07/03 09:14:04;;;;;;;6.38;4.53;;;23.30;43.10;;;;;;5035084;28;20029;-73
2021/07/03 09:16:31;;;;;;;4.95;4.40;;;23.40;42.60;;;;;;5034913;28;20097;-74
2021/07/03 09:18:57;;;;;;;5.28;4.55;;;23.30;44.50;;;;;;5033701;28;20037;-74
2021/07/03 09:21:23;;;;;;;6.68;4.53;;;23.50;44.90;;;;;;5017057;28;20025;-74
2021/07/03 09:23:48;;;;;;;5.80;4.60;;;23.50;43.90;;;;;;5043919;28;20381;-74
2021/07/03 09:26:14;;;;;;;5.53;4.70;;;23.60;42.80;;;;;;5054554;28;20025;-74
2021/07/03 09:28:43;;;;;;;7.72;4.90;;;23.70;45.20;;;;;;5054052;28;20129;-74
2021/07/03 09:31:12;;;;;;;6.40;3.95;;;23.80;44.40;;;;;;5054481;28;20064;-74
2021/07/03 09:33:44;;;;;;;5.45;4.10;;;23.90;43.50;;;;;;5054522;28;20058;-74
2021/07/03 09:36:12;;;;;;;4.53;3.85;;;24.10;44.30;;;;;;5054438;28;20025;-74
2021/07/03 09:38:39;;;;;;;5.03;3.97;;;24.20;41.80;;;;;;5054507;28;20370;-74
2021/07/03 09:41:22;;;;;;;4.88;4.38;;;24.20;41.20;;;;;;5054002;28;20032;-74
2021/07/03 09:43:48;;;;;;;4.45;3.95;;;24.30;41.80;;;;;;5054154;28;20044;-73
2021/07/03 09:46:27;;;;;;;4.07;3.67;;;24.30;41.20;;;;;;5054217;28;20474;-74
2021/07/03 09:48:59;;;;;;;4.38;3.70;;;24.40;39.40;;;;;;5054149;28;20032;-74
2021/07/03 09:51:30;;;;;;;4.25;3.83;;;24.40;38.80;;;;;;5054277;28;20033;-74
2021/07/03 09:53:57;;;;;;;4.70;3.92;;;24.40;39.70;;;;;;5054208;28;20021;-75
2021/07/03 09:56:23;;;;;;;4.90;3.85;;;24.40;40.10;;;;;;5036362;28;20033;-72
2021/07/03 09:58:49;;;;;;;5.57;4.50;;;24.50;41.90;;;;;;5053990;28;20082;-73
2021/07/03 10:01:14;;;;;;;6.20;3.80;;;24.70;42.80;;;;;;5053937;28;20104;-73
2021/07/03 10:03:40;;;;;;;5.05;3.88;;;24.80;39.80;;;;;;5053899;28;20045;-73
2021/07/03 10:06:09;;;;;;;4.32;3.92;;;24.90;40.50;;;;;;5053993;28;20020;-73
2021/07/03 10:08:47;;;;;;;4.68;3.80;;;25.10;40.00;;;;;;5053788;28;20032;-72
2021/07/03 10:11:19;;;;;;;5.90;4.00;;;25.30;39.60;;;;;;5052669;28;20548;-74
2021/07/03 10:13:46;;;;;;;4.55;4.03;;;25.50;39.00;;;;;;5053617;28;20115;-74
2021/07/03 10:16:14;;;;;;;4.60;3.65;;;25.40;38.40;;;;;;5053707;28;20028;-74
2021/07/03 10:18:39;;;;;;;4.57;4.03;;;25.30;39.50;;;;;;5053836;28;20052;-74
2021/07/03 10:21:20;;;;;;;4.38;3.92;;;25.10;38.00;;;;;;5057265;28;20083;-74
2021/07/03 10:23:46;;;;;;;5.28;4.25;;;25.20;39.00;;;;;;5036120;28;20025;-73
2021/07/03 10:26:12;;;;;;;4.32;3.67;;;25.10;37.30;;;;;;5054017;28;20025;-74
2021/07/03 10:28:41;;;;;;;5.07;4.00;;;25.20;37.60;;;;;;5053609;28;20021;-73
2021/07/03 10:31:12;;;;;;;4.72;4.00;;;25.20;38.20;;;;;;5053300;28;20041;-74
2021/07/03 10:33:58;;;;;;;4.25;3.70;;;25.40;37.90;;;;;;5053251;28;20024;-73
2021/07/03 10:36:28;;;;;;;;;;;25.60;38.00;;;;;;5053553;28;20071;-73
2021/07/03 10:38:54;;;;;;;6.43;4.47;;;25.80;36.60;;;;;;5053194;28;20011;-74
2021/07/03 10:41:23;;;;;;;4.25;3.85;;;26.00;36.70;;;;;;5053393;28;20052;-73
2021/07/03 10:44:08;;;;;;;5.57;4.00;;;26.10;37.80;;;;;;5045659;28;20087;-73
2021/07/03 10:46:42;;;;;;;4.22;3.83;;;26.30;35.70;;;;;;5053353;28;20040;-73
2021/07/03 10:49:11;;;;;;;6.25;4.38;;;26.10;35.70;;;;;;5053145;28;20029;-73
2021/07/03 10:51:40;;;;;;;4.40;4.00;;;26.00;36.40;;;;;;5034924;28;20033;-73
2021/07/03 10:54:25;;;;;;;6.68;4.00;;;26.00;36.50;;;;;;5053086;28;20028;-73
2021/07/03 10:57:05;;;;;;;4.53;3.67;;;25.90;35.70;;;;;;5059273;28;20033;-74
2021/07/03 10:59:37;;;;;;;5.82;4.05;;;26.00;35.70;;;;;;5064005;28;20029;-73
2021/07/03 11:02:14;;;;;;;4.80;4.30;;;26.40;37.20;;;;;;5052943;28;20385;-74
2021/07/03 11:04:54;;;;;;;4.97;3.47;;;26.40;35.10;;;;;;5053043;28;20442;-73
2021/07/03 11:07:31;;;;;;;4.68;3.72;;;26.30;35.90;;;;;;5052931;28;20098;-74
2021/07/03 11:10:30;;;;;;;4.25;3.85;;;26.30;35.50;;;;;;5052962;28;20108;-72
2021/07/03 11:12:57;;;;;;;6.85;4.10;;;26.00;35.50;;;;;;5015514;28;20041;-72
2021/07/03 11:15:24;;;;;;;5.03;4.43;;;25.80;35.30;;;;;;5052795;28;20100;-72
2021/07/03 11:17:51;;;;;;;4.20;3.78;;;25.80;36.00;;;;;;5052987;28;20017;-72
2021/07/03 11:20:35;;;;;;;4.72;3.72;;;25.70;36.40;;;;;;5052929;28;20021;-73
2021/07/03 11:23:05;;;;;;;4.88;4.38;;;25.70;37.40;;;;;;5052641;28;20131;-72
2021/07/03 11:25:33;;;;;;;5.97;4.10;;;26.00;37.70;;;;;;5052990;28;20573;-72
2021/07/03 11:28:06;;;;;;;4.20;3.80;;;26.30;36.20;;;;;;5052741;28;20025;-74
2021/07/03 11:30:32;;;;;;;6.10;3.85;;;26.80;37.50;;;;;;5034666;28;20104;-73
2021/07/03 11:32:58;;;;;;;4.93;3.40;;;27.00;34.70;;;;;;5052615;28;20025;-73
2021/07/03 11:35:25;;;;;;;5.45;3.63;;;27.20;33.80;;;;;;5052597;28;20021;-72
2021/07/03 11:37:52;;;;;;;4.75;3.78;;;27.40;34.20;;;;;;5052753;28;20069;-72
2021/07/03 11:40:29;;;;;;;4.85;3.88;;;27.60;33.60;;;;;;5034760;28;20127;-72
2021/07/03 11:43:00;;;;;;;3.75;3.35;;;27.80;32.10;;;;;;5052723;28;20017;-74
2021/07/03 11:45:28;;;;;;;4.30;3.75;;;28.00;32.70;;;;;;5034453;28;20024;-71
2021/07/03 11:48:02;;;;;;;3.47;3.17;;;27.60;31.20;;;;;;5052428;28;20023;-73
2021/07/03 11:50:34;;;;;;;7.22;4.13;;;27.40;31.70;;;;;;5052417;28;20025;-73
2021/07/03 11:53:01;;;;;;;4.57;3.85;;;27.10;33.10;;;;;;5034647;28;20511;-73
2021/07/03 11:55:29;;;;;;;3.65;3.30;;;27.00;33.80;;;;;;5052279;28;20017;-72
2021/07/03 11:57:56;;;;;;;4.18;3.78;;;27.10;32.80;;;;;;5052500;28;20029;-72
2021/07/03 12:00:24;;;;;;;3.65;3.15;;;26.60;31.90;;;;;;5052345;28;20017;-72
2021/07/03 12:02:50;;;;;;;3.22;2.92;;;26.20;32.20;;;;;;5052372;28;20033;-72
2021/07/03 12:05:25;;;;;;;3.83;3.42;;;26.30;33.10;;;;;;5052218;28;20079;-72
2021/07/03 12:08:09;;;;;;;4.32;3.35;;;26.20;33.30;;;;;;5052373;28;20040;-72
2021/07/03 12:10:47;;;;;;;3.40;2.75;;;25.90;33.00;;;;;;5052089;28;20469;-72
2021/07/03 12:13:25;;;;;;;4.22;2.83;;;26.20;32.90;;;;;;5052181;28;20029;-72
2021/07/03 12:16:12;;;;;;;4.28;3.13;;;26.90;31.80;;;;;;5035275;28;20055;-72
2021/07/03 12:18:51;;;;;;;3.28;2.75;;;27.20;31.70;;;;;;5052104;28;20033;-72
2021/07/03 12:21:19;;;;;;;3.42;2.95;;;27.60;29.90;;;;;;5030497;28;20497;-72
2021/07/03 12:23:48;;;;;;;3.55;3.25;;;27.70;29.70;;;;;;5051868;28;20021;-72
2021/07/03 12:26:27;;;;;;;3.33;2.83;;;27.80;29.60;;;;;;5052029;28;20104;-72
2021/07/03 12:28:55;;;;;;;4.82;3.35;;;28.00;30.10;;;;;;5051914;28;20108;-72
2021/07/03 12:31:28;;;;;;;3.33;3.03;;;28.50;29.70;;;;;;5051988;28;20516;-72
2021/07/03 12:34:08;;;;;;;3.30;3.00;;;28.90;28.70;;;;;;5053108;28;20112;-72
2021/07/03 12:36:35;;;;;;;5.45;3.20;;;29.00;28.80;;;;;;5055955;28;20025;-71
2021/07/03 12:39:04;;;;;;;3.72;3.00;;;28.80;28.40;;;;;;5055822;28;20032;-72
2021/07/03 12:41:30;;;;;;;3.78;3.03;;;28.90;28.90;;;;;;5055634;28;20425;-72
2021/07/03 12:43:56;;;;;;;3.13;2.83;;;29.10;29.00;;;;;;5055779;28;20025;-72